Terminal Aerodrome Forecast
Issued by NWS

Home | Current Version | Previous Version | Graphics & Text | Print | Product List | Glossary On
Versions: 1 2 3 4 5 6 7 8 9 10 11 12 13 14 15 16 17 18 19 20 21 22 23
948
FTUS43 KLOT 010301 AAA
TAFDPA
TAF AMD
KDPA 010301Z 0103/0124 05009KT 6SM BR VCSH SCT008 OVC012
      TEMPO 0103/0107 4SM -SHRA BKN008
     FM010700 04008KT 3SM BR OVC008
     FM010900 03007KT 3SM BR OVC006
     FM011400 04010KT 5SM -SHRA BR OVC008
     FM011700 02008KT 6SM -SHRA BR OVC012
     FM012300 36007KT 6SM BR OVC008=

USA.gov is the U.S. government's official web portal to all federal, state and local government web resources and services.